createdAt,value
2023-02-25T00:02:14.114Z,2.12
2023-02-25T00:04:42.098Z,2.16
2023-02-25T00:07:09.039Z,2.20
2023-02-25T00:09:35.636Z,2.00
2023-02-25T00:12:02.175Z,2.20
2023-02-25T00:14:28.872Z,1.95
2023-02-25T00:16:58.151Z,2.02
2023-02-25T00:19:25.470Z,2.14
2023-02-25T00:21:52.013Z,1.99
2023-02-25T00:24:18.658Z,1.88
2023-02-25T00:26:45.343Z,1.76
2023-02-25T00:29:14.191Z,1.77
2023-02-25T00:31:40.720Z,1.75
2023-02-25T00:34:08.802Z,1.66
2023-02-25T00:36:35.507Z,1.68
2023-02-25T00:39:02.041Z,1.63
2023-02-25T00:41:30.601Z,1.85
2023-02-25T00:43:59.746Z,1.86
2023-02-25T00:46:27.170Z,1.71
2023-02-25T00:48:54.218Z,1.51
2023-02-25T00:51:27.002Z,1.53
2023-02-25T00:53:55.761Z,1.57
2023-02-25T00:56:24.170Z,1.42
2023-02-25T00:58:52.133Z,1.47
2023-02-25T01:01:23.839Z,1.52
2023-02-25T01:03:51.859Z,1.46
2023-02-25T01:06:18.490Z,1.58
2023-02-25T01:08:45.380Z,1.42
2023-02-25T01:11:27.683Z,1.55
2023-02-25T01:13:55.886Z,1.40
2023-02-25T01:16:26.192Z,1.53
2023-02-25T01:18:54.926Z,1.36
2023-02-25T01:21:31.968Z,1.33
2023-02-25T01:24:05.236Z,1.34
2023-02-25T01:26:34.573Z,1.31
2023-02-25T01:29:01.016Z,1.05
2023-02-25T01:31:31.319Z,1.30
2023-02-25T01:33:59.889Z,1.19
2023-02-25T01:36:28.152Z,0.99
2023-02-25T01:38:56.600Z,1.24
2023-02-25T01:41:25.087Z,1.10
2023-02-25T01:44:16.325Z,1.13
2023-02-25T01:46:46.551Z,0.97
2023-02-25T01:49:34.434Z,1.05
2023-02-25T01:52:08.374Z,1.11
2023-02-25T01:54:36.355Z,1.07
2023-02-25T01:57:07.598Z,1.13
2023-02-25T01:59:35.411Z,1.14
2023-02-25T02:02:02.774Z,1.08
2023-02-25T02:04:31.513Z,1.01
2023-02-25T02:06:59.108Z,0.99
2023-02-25T02:09:28.056Z,1.15
2023-02-25T02:12:00.016Z,0.96
2023-02-25T02:14:31.680Z,0.97
2023-02-25T02:17:22.431Z,0.99
2023-02-25T02:19:51.782Z,1.10
2023-02-25T02:22:37.223Z,0.94
2023-02-25T02:25:18.722Z,1.14
2023-02-25T02:27:52.051Z,1.19
2023-02-25T02:30:30.158Z,1.07
2023-02-25T02:33:10.108Z,0.98
2023-02-25T02:35:58.192Z,0.87
2023-02-25T02:38:35.812Z,0.94
2023-02-25T02:41:23.585Z,0.88
2023-02-25T02:44:12.527Z,0.93
2023-02-25T02:46:47.292Z,0.79
2023-02-25T02:49:19.993Z,0.86
2023-02-25T02:52:03.708Z,0.74
2023-02-25T02:54:37.439Z,0.68
2023-02-25T02:57:06.221Z,0.78
2023-02-25T02:59:46.058Z,0.76
2023-02-25T03:02:18.401Z,0.85
2023-02-25T03:04:48.584Z,0.74
2023-02-25T03:07:17.914Z,0.95
2023-02-25T03:09:55.284Z,0.79
2023-02-25T03:12:23.063Z,0.80
2023-02-25T03:14:49.534Z,0.78
2023-02-25T03:17:24.974Z,0.90
2023-02-25T03:20:20.758Z,0.89
2023-02-25T03:22:50.127Z,0.85
2023-02-25T03:25:47.753Z,0.85
2023-02-25T03:28:20.210Z,0.82
2023-02-25T03:31:06.457Z,0.82
2023-02-25T03:33:39.352Z,0.73
2023-02-25T03:36:12.548Z,0.89
2023-02-25T03:38:44.869Z,0.85
2023-02-25T03:41:13.608Z,0.91
2023-02-25T03:43:49.298Z,0.88
2023-02-25T03:46:19.322Z,0.86
2023-02-25T03:48:47.319Z,1.05
2023-02-25T03:51:20.114Z,0.86
2023-02-25T03:53:47.118Z,0.79
2023-02-25T03:56:18.829Z,0.78
2023-02-25T03:58:45.614Z,0.93
2023-02-25T04:01:17.403Z,0.92
2023-02-25T04:03:44.392Z,0.93
2023-02-25T04:06:14.313Z,1.04
2023-02-25T04:08:41.743Z,0.94
2023-02-25T04:11:08.204Z,0.83
2023-02-25T04:13:34.883Z,0.95
2023-02-25T04:16:01.476Z,0.97
2023-02-25T04:18:28.260Z,1.08
2023-02-25T04:20:55.085Z,0.98
2023-02-25T04:23:21.650Z,0.95
2023-02-25T04:25:48.078Z,0.95
2023-02-25T04:28:14.541Z,0.82
2023-02-25T04:30:41.056Z,0.95
2023-02-25T04:33:07.695Z,0.90
2023-02-25T04:35:34.154Z,0.85
2023-02-25T04:38:00.605Z,1.00
2023-02-25T04:40:27.179Z,0.79
2023-02-25T04:42:53.809Z,0.89
2023-02-25T04:45:26.936Z,1.02
2023-02-25T04:47:57.979Z,0.97
2023-02-25T04:50:25.267Z,0.98
2023-02-25T04:52:52.047Z,0.71
2023-02-25T04:55:18.627Z,0.86
2023-02-25T04:57:45.091Z,0.83
2023-02-25T05:00:20.785Z,0.82
2023-02-25T05:02:48.661Z,1.02
2023-02-25T05:05:16.070Z,0.97
2023-02-25T05:07:42.996Z,0.75
2023-02-25T05:10:11.897Z,0.98
2023-02-25T05:12:38.536Z,0.90
2023-02-25T05:15:05.906Z,0.92
2023-02-25T05:17:32.962Z,0.91
2023-02-25T05:19:59.610Z,0.75
2023-02-25T05:22:27.479Z,0.92
2023-02-25T05:24:54.504Z,1.00
2023-02-25T05:27:21.009Z,0.96
2023-02-25T05:29:47.573Z,1.03
2023-02-25T05:32:14.251Z,1.01
2023-02-25T05:34:41.686Z,0.93
2023-02-25T05:37:08.206Z,1.06
2023-02-25T05:39:34.983Z,1.15
2023-02-25T05:42:01.469Z,0.92
2023-02-25T05:44:28.076Z,0.93
2023-02-25T05:46:54.560Z,1.07
2023-02-25T05:49:21.060Z,1.01
2023-02-25T05:51:49.167Z,0.96
2023-02-25T05:54:15.607Z,1.03
2023-02-25T05:56:42.044Z,0.72
2023-02-25T05:59:09.587Z,1.01
2023-02-25T06:01:36.058Z,0.98
2023-02-25T06:04:02.862Z,1.02
2023-02-25T06:06:31.530Z,1.03
2023-02-25T06:08:58.185Z,1.10
2023-02-25T06:11:29.480Z,1.20
2023-02-25T06:13:57.462Z,1.14
2023-02-25T06:16:31.869Z,1.04
2023-02-25T06:19:01.000Z,1.03
2023-02-25T06:21:27.826Z,1.00
2023-02-25T06:23:54.485Z,1.14
2023-02-25T06:26:22.100Z,1.14
2023-02-25T06:28:48.872Z,1.04
2023-02-25T06:31:17.597Z,1.17
2023-02-25T06:33:45.593Z,1.25
2023-02-25T06:36:13.421Z,1.23
2023-02-25T06:38:40.137Z,1.03
2023-02-25T06:41:14.177Z,1.26
2023-02-25T06:43:40.787Z,1.09
2023-02-25T06:46:09.847Z,1.30
2023-02-25T06:48:36.533Z,1.17
2023-02-25T06:51:04.742Z,1.36
2023-02-25T06:53:31.188Z,1.23
2023-02-25T06:55:58.671Z,1.32
2023-02-25T06:58:25.169Z,1.29
2023-02-25T07:00:51.670Z,1.25
2023-02-25T07:03:18.209Z,1.18
2023-02-25T07:05:44.729Z,1.28
2023-02-25T07:08:11.326Z,1.54
2023-02-25T07:10:40.429Z,1.39
2023-02-25T07:13:08.287Z,1.35
2023-02-25T07:15:35.382Z,1.43
2023-02-25T07:18:03.189Z,1.48
2023-02-25T07:20:30.208Z,1.38
2023-02-25T07:22:56.863Z,1.45
2023-02-25T07:25:23.506Z,1.38
2023-02-25T07:27:49.988Z,1.45
2023-02-25T07:30:16.998Z,1.51
2023-02-25T07:32:43.661Z,1.38
2023-02-25T07:35:10.614Z,1.42
2023-02-25T07:37:37.614Z,1.34
2023-02-25T07:40:12.811Z,1.58
2023-02-25T07:42:41.106Z,1.49
2023-02-25T07:45:09.547Z,1.56
2023-02-25T07:47:36.888Z,1.58
2023-02-25T07:50:05.631Z,1.67
2023-02-25T07:52:32.318Z,1.63
2023-02-25T07:54:58.847Z,1.49
2023-02-25T07:57:25.456Z,1.40
2023-02-25T07:59:51.930Z,1.58
2023-02-25T08:02:18.410Z,1.65
2023-02-25T08:04:44.889Z,1.82
2023-02-25T08:07:11.441Z,1.86
2023-02-25T08:09:37.936Z,1.83
2023-02-25T08:12:05.210Z,1.76
2023-02-25T08:14:31.655Z,1.86
2023-02-25T08:16:58.160Z,1.76
2023-02-25T08:19:24.642Z,1.64
2023-02-25T08:21:51.086Z,1.82
2023-02-25T08:24:20.549Z,1.95
2023-02-25T08:26:47.791Z,2.07
2023-02-25T08:29:14.723Z,1.84
2023-02-25T08:31:41.513Z,1.78
2023-02-25T08:34:08.178Z,2.10
2023-02-25T08:36:36.107Z,2.26
2023-02-25T08:39:02.666Z,2.16
2023-02-25T08:41:29.757Z,2.14
2023-02-25T08:43:58.224Z,2.30
2023-02-25T08:46:28.080Z,2.07
2023-02-25T08:48:55.124Z,2.13
2023-02-25T08:51:24.125Z,2.31
2023-02-25T08:53:50.797Z,1.96
2023-02-25T08:56:17.533Z,2.30
2023-02-25T08:58:44.309Z,2.21
2023-02-25T09:01:15.814Z,2.21
2023-02-25T09:03:53.797Z,2.30
2023-02-25T09:06:27.726Z,2.24
2023-02-25T09:08:55.731Z,2.01
2023-02-25T09:11:25.964Z,2.05
2023-02-25T09:13:54.763Z,2.16
2023-02-25T09:16:21.901Z,1.99
2023-02-25T09:18:51.269Z,1.97
2023-02-25T09:21:19.073Z,2.05
2023-02-25T09:23:46.709Z,1.99
2023-02-25T09:26:14.115Z,2.06
2023-02-25T09:28:40.599Z,1.99
2023-02-25T09:31:07.133Z,2.02
2023-02-25T09:33:35.769Z,2.04
2023-02-25T09:36:15.219Z,1.99
2023-02-25T09:38:42.892Z,2.11
2023-02-25T09:41:37.284Z,1.95
2023-02-25T09:44:14.263Z,2.23
2023-02-25T09:46:57.189Z,2.29
2023-02-25T09:49:48.496Z,2.39
2023-02-25T09:52:31.804Z,2.40
2023-02-25T09:55:00.656Z,2.43
2023-02-25T09:57:29.506Z,2.27
2023-02-25T09:59:55.973Z,2.15
2023-02-25T10:02:27.852Z,2.38
2023-02-25T10:05:30.151Z,2.61
2023-02-25T10:08:15.645Z,2.64
2023-02-25T10:10:56.723Z,2.73
2023-02-25T10:13:56.378Z,2.97
2023-02-25T10:16:55.425Z,2.91
2023-02-25T10:19:40.770Z,3.06
2023-02-25T10:22:17.454Z,3.04
2023-02-25T10:24:51.858Z,2.86
2023-02-25T10:27:31.989Z,2.86
2023-02-25T10:30:16.783Z,2.99
2023-02-25T10:32:45.413Z,3.00
2023-02-25T10:35:28.855Z,2.92
2023-02-25T10:37:55.887Z,3.01
2023-02-25T10:40:24.555Z,2.89
2023-02-25T10:43:01.687Z,2.92
2023-02-25T10:45:31.678Z,3.04
2023-02-25T10:48:07.316Z,3.02
2023-02-25T10:50:45.049Z,2.90
2023-02-25T10:53:18.168Z,3.02
2023-02-25T10:55:46.789Z,3.11
2023-02-25T10:58:34.450Z,2.94
2023-02-25T11:01:07.312Z,3.14
2023-02-25T11:03:43.653Z,2.93
2023-02-25T11:06:23.324Z,2.95
2023-02-25T11:08:50.748Z,2.92
2023-02-25T11:11:21.503Z,2.45
2023-02-25T11:14:18.899Z,2.60
2023-02-25T11:16:45.691Z,2.74
2023-02-25T11:19:26.576Z,2.78
2023-02-25T11:21:53.646Z,3.02
2023-02-25T11:24:36.608Z,3.13
2023-02-25T11:27:06.072Z,3.01
2023-02-25T11:29:43.287Z,3.09
2023-02-25T11:32:18.666Z,3.04
2023-02-25T11:34:49.018Z,3.17
2023-02-25T11:37:36.030Z,3.09
2023-02-25T11:40:20.460Z,2.99
2023-02-25T11:43:17.075Z,3.22
2023-02-25T11:45:55.339Z,3.35
2023-02-25T11:48:29.842Z,3.06
2023-02-25T11:51:18.405Z,3.20
2023-02-25T11:54:00.222Z,2.99
2023-02-25T11:56:36.810Z,3.05
2023-02-25T11:59:31.339Z,3.09
2023-02-25T12:02:27.333Z,3.24
2023-02-25T12:05:14.151Z,3.61
2023-02-25T12:08:12.294Z,3.89
2023-02-25T12:11:25.015Z,4.11
2023-02-25T12:14:27.959Z,4.17
2023-02-25T12:17:29.807Z,4.41
2023-02-25T12:19:59.348Z,4.38
2023-02-25T12:22:55.186Z,4.25
2023-02-25T12:25:52.203Z,4.02
2023-02-25T12:28:49.717Z,4.22
2023-02-25T12:31:54.056Z,3.95
2023-02-25T12:34:51.709Z,3.72
2023-02-25T12:37:34.883Z,3.71
2023-02-25T12:40:04.428Z,3.67
2023-02-25T12:42:37.954Z,3.72
2023-02-25T12:45:24.686Z,3.76
2023-02-25T12:48:09.423Z,3.64
2023-02-25T12:51:09.091Z,3.73
2023-02-25T12:53:59.884Z,3.52
2023-02-25T12:57:11.666Z,3.72
2023-02-25T13:00:20.652Z,3.82
2023-02-25T13:03:07.114Z,3.77
2023-02-25T13:06:15.663Z,3.72
2023-02-25T13:09:26.175Z,3.52
2023-02-25T13:12:20.610Z,3.71
2023-02-25T13:14:59.783Z,3.83
2023-02-25T13:17:37.348Z,4.05
2023-02-25T13:20:37.886Z,4.24
2023-02-25T13:23:30.723Z,4.29
2023-02-25T13:26:19.792Z,4.40
2023-02-25T13:28:46.228Z,4.54
2023-02-25T13:31:26.888Z,4.61
2023-02-25T13:34:11.865Z,4.54
2023-02-25T13:36:47.377Z,4.52
2023-02-25T13:39:35.443Z,4.44
2023-02-25T13:42:30.664Z,4.17
2023-02-25T13:45:03.020Z,4.18
2023-02-25T13:47:47.717Z,4.12
2023-02-25T13:50:29.379Z,4.11
2023-02-25T13:53:15.501Z,3.98
2023-02-25T13:56:00.239Z,4.14
2023-02-25T13:58:55.185Z,4.13
2023-02-25T14:01:46.448Z,4.08
2023-02-25T14:04:50.270Z,4.04
2023-02-25T14:07:42.335Z,4.00
2023-02-25T14:10:11.833Z,3.99
2023-02-25T14:13:02.767Z,3.86
2023-02-25T14:16:01.215Z,3.65
2023-02-25T14:18:50.883Z,3.61
2023-02-25T14:21:45.305Z,3.49
2023-02-25T14:24:29.051Z,3.63
2023-02-25T14:27:27.459Z,3.53
2023-02-25T14:30:02.986Z,3.50
2023-02-25T14:32:55.548Z,3.48
2023-02-25T14:35:42.052Z,3.42
2023-02-25T14:38:15.668Z,3.57
2023-02-25T14:41:19.366Z,3.40
2023-02-25T14:43:56.943Z,3.44
2023-02-25T14:46:40.343Z,3.35
2023-02-25T14:49:27.298Z,3.32
2023-02-25T14:52:32.559Z,3.40
2023-02-25T14:55:36.039Z,3.37
2023-02-25T14:58:27.354Z,3.35
2023-02-25T15:01:08.662Z,3.38
2023-02-25T15:03:57.795Z,3.34
2023-02-25T15:06:33.259Z,3.37
2023-02-25T15:09:36.654Z,3.48
2023-02-25T15:12:38.167Z,3.32
2023-02-25T15:15:38.790Z,3.19
2023-02-25T15:18:28.219Z,3.31
2023-02-25T15:20:55.785Z,3.09
2023-02-25T15:23:42.005Z,3.18
2023-02-25T15:26:25.655Z,3.17
2023-02-25T15:28:55.549Z,3.15
2023-02-25T15:31:34.055Z,2.97
2023-02-25T15:34:34.230Z,3.11
2023-02-25T15:37:30.769Z,3.03
2023-02-25T15:40:17.518Z,3.09
2023-02-25T15:42:50.211Z,3.06
2023-02-25T15:45:29.176Z,3.16
2023-02-25T15:48:08.049Z,3.04
2023-02-25T15:50:43.726Z,3.06
2023-02-25T15:53:20.931Z,3.04
2023-02-25T15:55:49.808Z,3.05
2023-02-25T15:58:25.340Z,3.08
2023-02-25T16:00:59.940Z,2.95
2023-02-25T16:03:34.668Z,2.91
2023-02-25T16:06:11.447Z,2.79
2023-02-25T16:08:46.828Z,2.83
2023-02-25T16:11:24.435Z,2.88
2023-02-25T16:13:52.426Z,2.74
2023-02-25T16:16:20.939Z,2.71
2023-02-25T16:18:50.510Z,2.81
2023-02-25T16:21:24.420Z,2.94
2023-02-25T16:23:51.128Z,2.93
2023-02-25T16:26:30.253Z,2.92
2023-02-25T16:29:08.796Z,2.92
2023-02-25T16:32:22.665Z,2.81
2023-02-25T16:34:58.665Z,2.88
2023-02-25T16:37:41.210Z,2.91
2023-02-25T16:40:27.725Z,2.63
2023-02-25T16:42:55.372Z,2.68
2023-02-25T16:45:45.003Z,2.78
2023-02-25T16:48:20.098Z,2.66
2023-02-25T16:50:48.983Z,2.66
2023-02-25T16:53:21.605Z,2.68
2023-02-25T16:55:49.780Z,2.62
2023-02-25T16:58:19.507Z,2.63
2023-02-25T17:00:56.986Z,2.78
2023-02-25T17:03:26.554Z,2.64
2023-02-25T17:06:08.596Z,2.59
2023-02-25T17:08:35.746Z,2.51
2023-02-25T17:11:05.470Z,2.66
2023-02-25T17:13:35.838Z,2.37
2023-02-25T17:16:04.450Z,2.50
2023-02-25T17:18:36.052Z,2.43
2023-02-25T17:21:08.120Z,2.61
2023-02-25T17:23:41.237Z,2.43
2023-02-25T17:26:11.917Z,2.52
2023-02-25T17:28:38.427Z,2.45
2023-02-25T17:31:11.697Z,2.45
2023-02-25T17:33:52.892Z,2.46
2023-02-25T17:36:26.079Z,2.51
2023-02-25T17:38:57.253Z,2.44
2023-02-25T17:41:25.103Z,2.46
2023-02-25T17:43:52.128Z,2.01
2023-02-25T17:46:38.378Z,1.79
2023-02-25T17:49:26.540Z,1.54
2023-02-25T17:51:55.243Z,1.31
2023-02-25T17:54:24.334Z,1.21
2023-02-25T17:57:06.243Z,0.94
2023-02-25T17:59:39.540Z,0.82
2023-02-25T18:02:38.380Z,0.80
2023-02-25T18:05:15.542Z,0.58
2023-02-25T18:07:43.951Z,0.44
2023-02-25T18:10:22.614Z,0.50
2023-02-25T18:12:50.275Z,0.31
2023-02-25T18:15:20.431Z,0.29
2023-02-25T18:18:13.309Z,0.22
2023-02-25T18:20:42.167Z,0.21
2023-02-25T18:23:21.039Z,0.23
2023-02-25T18:25:53.442Z,0.32
2023-02-25T18:28:21.898Z,0.16
2023-02-25T18:30:50.178Z,0.20
2023-02-25T18:33:18.926Z,0.11
2023-02-25T18:35:47.836Z,0.12
2023-02-25T18:38:23.446Z,-0.06
2023-02-25T18:40:51.980Z,-0.04
2023-02-25T18:43:20.978Z,0.12
2023-02-25T18:45:48.481Z,0.15
2023-02-25T18:48:15.404Z,0.13
2023-02-25T18:50:44.487Z,0.22
2023-02-25T18:53:19.139Z,0.20
2023-02-25T18:55:45.661Z,-0.04
2023-02-25T18:58:13.724Z,-0.04
2023-02-25T19:00:41.069Z,0.01
2023-02-25T19:03:10.602Z,-0.08
2023-02-25T19:05:37.841Z,-0.30
2023-02-25T19:08:14.640Z,-0.14
2023-02-25T19:10:43.561Z,-0.09
2023-02-25T19:13:27.354Z,-0.10
2023-02-25T19:18:35.182Z,-0.14
2023-02-25T19:21:01.657Z,-0.22
2023-02-25T19:23:29.035Z,-0.27
2023-02-25T19:25:59.359Z,-0.45
2023-02-25T19:28:26.836Z,-0.26
2023-02-25T19:30:53.392Z,-0.35
2023-02-25T19:33:20.115Z,-0.16
2023-02-25T19:35:46.676Z,-0.26
2023-02-25T19:38:15.620Z,-0.08
2023-02-25T19:40:44.134Z,-0.09
2023-02-25T19:43:11.516Z,0.11
2023-02-25T19:45:39.981Z,-0.06
2023-02-25T19:48:07.004Z,-0.10
2023-02-25T19:50:34.848Z,0.01
2023-02-25T19:53:03.322Z,0.00
2023-02-25T19:55:30.239Z,-0.15
2023-02-25T19:57:56.775Z,-0.13
2023-02-25T20:00:25.163Z,-0.01
2023-02-25T20:02:53.632Z,-0.02
2023-02-25T20:05:21.292Z,-0.22
2023-02-25T20:07:47.922Z,-0.06
2023-02-25T20:10:15.926Z,-0.02
2023-02-25T20:12:44.684Z,0.03
2023-02-25T20:15:12.416Z,-0.02
2023-02-25T20:17:46.365Z,-0.07
2023-02-25T20:20:14.730Z,-0.39
2023-02-25T20:22:41.864Z,-0.03
2023-02-25T20:25:10.143Z,-0.18
2023-02-25T20:27:39.538Z,-0.04
2023-02-25T20:30:07.008Z,-0.22
2023-02-25T20:32:34.162Z,-0.12
2023-02-25T20:35:01.019Z,-0.30
2023-02-25T20:37:31.481Z,-0.26
2023-02-25T20:39:59.350Z,-0.32
2023-02-25T20:42:28.642Z,-0.48
2023-02-25T20:44:56.211Z,-0.81
2023-02-25T20:47:28.944Z,-0.66
2023-02-25T20:49:56.572Z,-0.74
2023-02-25T20:52:23.327Z,-0.85
2023-02-25T20:54:50.068Z,-0.62
2023-02-25T20:57:19.691Z,-0.89
2023-02-25T20:59:50.789Z,-0.78
2023-02-25T21:02:17.881Z,-0.74
2023-02-25T21:04:44.446Z,-0.79
2023-02-25T21:07:10.986Z,-0.88
2023-02-25T21:09:37.437Z,-0.81
2023-02-25T21:12:04.140Z,-0.88
2023-02-25T21:14:30.627Z,-0.98
2023-02-25T21:16:57.440Z,-1.06
2023-02-25T21:19:27.970Z,-0.79
2023-02-25T21:21:58.397Z,-0.89
2023-02-25T21:24:43.821Z,-0.77
2023-02-25T21:27:11.505Z,-0.69
2023-02-25T21:29:38.624Z,-1.04
2023-02-25T21:32:05.408Z,-0.72
2023-02-25T21:34:32.128Z,-0.82
2023-02-25T21:36:58.682Z,-0.72
2023-02-25T21:39:25.903Z,-1.06
2023-02-25T21:41:52.659Z,-0.83
2023-02-25T21:44:19.077Z,-0.98
2023-02-25T21:46:45.582Z,-0.72
2023-02-25T21:49:12.057Z,-0.83
2023-02-25T21:51:40.156Z,-0.82
2023-02-25T21:54:06.656Z,-0.73
2023-02-25T21:56:33.923Z,-0.66
2023-02-25T21:59:05.250Z,-0.61
2023-02-25T22:01:35.170Z,-0.57
2023-02-25T22:04:02.453Z,-0.54
2023-02-25T22:06:29.297Z,-0.45
2023-02-25T22:08:56.880Z,-0.41
2023-02-25T22:11:29.350Z,-0.37
2023-02-25T22:13:56.054Z,-0.36
2023-02-25T22:16:23.753Z,-0.42
2023-02-25T22:18:51.653Z,-0.64
2023-02-25T22:21:19.769Z,-0.44
2023-02-25T22:23:48.652Z,-0.50
2023-02-25T22:26:18.772Z,-0.44
2023-02-25T22:28:46.434Z,-0.50
2023-02-25T22:31:17.556Z,-0.72
2023-02-25T22:33:45.040Z,-0.68
2023-02-25T22:36:12.989Z,-0.81
2023-02-25T22:38:41.613Z,-0.93
2023-02-25T22:41:24.659Z,-0.87
2023-02-25T22:43:52.278Z,-0.87
2023-02-25T22:46:24.817Z,-0.91
2023-02-25T22:48:52.468Z,-0.83
2023-02-25T22:51:25.453Z,-0.88
2023-02-25T22:53:52.840Z,-0.99
2023-02-25T22:56:20.111Z,-1.11
2023-02-25T22:58:47.009Z,-1.10
2023-02-25T23:01:15.635Z,-1.37
2023-02-25T23:03:45.575Z,-1.07
2023-02-25T23:06:13.709Z,-0.97
2023-02-25T23:08:40.384Z,-1.28
2023-02-25T23:11:13.317Z,-1.02
2023-02-25T23:13:47.418Z,-1.15
2023-02-25T23:16:14.055Z,-1.03
2023-02-25T23:18:40.658Z,-1.08
2023-02-25T23:21:09.193Z,-1.30
2023-02-25T23:23:38.625Z,-1.52
2023-02-25T23:26:08.303Z,-1.24
2023-02-25T23:28:36.035Z,-1.28
2023-02-25T23:31:03.469Z,-1.33
2023-02-25T23:33:31.056Z,-1.30
2023-02-25T23:35:58.986Z,-1.12
2023-02-25T23:38:25.633Z,-1.49
2023-02-25T23:40:52.117Z,-1.41
2023-02-25T23:43:18.604Z,-1.46
2023-02-25T23:45:47.017Z,-1.43
2023-02-25T23:48:13.952Z,-1.56
2023-02-25T23:50:40.408Z,-1.59
2023-02-25T23:53:06.867Z,-1.47
2023-02-25T23:55:35.447Z,-1.49
2023-02-25T23:58:02.962Z,-1.45
